WEATHER DATA

YESTERDAY
Time Temp. Dewp. Hum. Wind dir Wind speed Wind gust Bar. 1h Prec. 24h Prec.
00:04 2.4 2.4 100 0 0 1017.2 0.0000 0.0000
00:25 2.2 2.2 100 0 0 1017.2 0.0000 0.0000
00:34 2.2 2.2 100 0 0 1017.1 0.0000 0.0000
00:45 2.1 2.1 100 0 0 1016.9 0.0000 0.0000
00:55 2.1 2.1 100 0 0 1016.8 0.0000 0.0000
01:05 2 2 100 0 0 1016.7 0.0000 0.0000
01:15 2 2 100 0 0 1016.5 0.0000 0.0000
01:25 1.9 1.9 100 0 0 1016.4 0.0000 0.0000
01:35 1.8 1.8 100 0 0 1016.3 0.0000 0.0000
01:45 1.8 1.8 100 0 0 1016.2 0.0000 0.0000
01:56 1.8 1.8 100 0 0 1016 0.0000 0.0000
02:05 1.7 1.7 100 0 0 1016.1 0.0000 0.0000
02:15 1.7 1.7 100 0 0 1015.8 0.0000 0.0000
02:25 1.7 1.7 100 0 0 1015.8 0.0000 0.0000
02:36 1.6 1.6 100 0 0 1015.7 0.0000 0.0000
02:45 1.6 1.6 100 0 0 1015.5 0.0000 0.0000
02:55 1.5 1.5 100 0 0 1015.4 0.0000 0.0000
03:06 1.4 1.4 100 0 0 1015.4 0.0000 0.0000
03:16 1.4 1.4 100 0 0 1015.3 0.0000 0.0000
03:25 1.5 1.5 100 0 0 1015.2 0.0000 0.0000
03:36 1.5 1.5 100 0 0 1015 0.0000 0.0000
03:46 1.5 1.5 100 0 0 1014.9 0.0000 0.0000
03:56 1.5 1.5 100 0 0 1014.7 0.0000 0.0000
04:05 1.5 1.5 100 0 0 1014.6 0.0000 0.0000
04:16 1.5 1.5 100 0 0 1014.4 0.0000 0.0000
04:26 1.5 1.5 100 0 0 1014.5 0.0000 0.0000
04:36 1.5 1.5 100 0 0 1014.4 0.0000 0.0000
04:47 1.6 1.6 100 0 0 1014.4 0.0000 0.0000
05:01 1.7 1.7 100 0 0 1014.3 0.0000 0.0000
05:11 1.8 1.8 100 0 0 1014.2 0.0000 0.0000
05:22 1.8 1.8 100 0 0 1014.3 0.0000 0.0000
05:31 1.9 1.9 100 0 0 1014.2 0.0000 0.0000
05:41 2 2 100 0 0 1014 0.0000 0.0000
05:51 2.1 2.1 100 0 0 1013.9 0.0000 0.0000
06:02 2.1 2.1 100 0 0 1013.9 0.0000 0.0000
06:12 2.2 2.2 100 0 0 1013.8 0.0000 0.0000
06:21 2.3 2.3 100 0 0 1013.7 0.0000 0.0000
06:32 2.3 2.3 100 0 0 1013.7 0.0000 0.0000
06:42 2.4 2.4 100 0 0 1013.5 0.0000 0.0000
06:52 2.5 2.5 100 0 0 1013.5 0.0000 0.0000
07:01 2.6 2.6 100 0 0 1013.2 0.0000 0.0000
07:12 2.7 2.7 100 0 0 1013.2 0.0000 0.0000
07:22 2.9 2.9 100 0 0 1013.3 0.0000 0.0000
07:32 3 3 100 0 0 1013.4 0.0000 0.0000
07:42 3 3 100 0 0 1013.3 0.0000 0.0000
07:52 3 3 100 0 0 1013.1 0.0000 0.0000
08:02 3 3 100 0 0 1013 0.0000 0.0000
08:12 3.1 3.1 100 0 0 1013.2 0.0000 0.0000
08:18 3.2 3.2 100 0 0 1013.2 0.0000 0.0000
08:33 3.3 3.3 100 0 0 1013.4 0.0000 0.0000
08:41 3.3 3.3 100 0 0 1013.3 0.0000 0.0000
08:51 3.4 3.4 100 0 0 1013.4 0.0000 0.0000
09:01 3.5 3.5 100 0 0 1013.5 0.0000 0.0000
09:11 3.5 3.5 100 0 0 1013.6 0.0000 0.0000
09:21 3.6 3.6 100 0 0 1013.5 0.0000 0.0000
09:31 3.6 3.6 100 0 0 1013.6 0.0000 0.0000
09:41 3.7 3.7 100 0 0 1013.5 0.0000 0.0000
09:52 3.7 3.7 100 0 0 1013.5 0.0000 0.0000
10:01 3.8 3.8 100 0 0 1013.5 0.0000 0.0000
10:11 3.9 3.9 100 0 0 1013.5 0.0000 0.0000
10:21 4.1 4.1 100 0 0 1013.4 0.0000 0.0000
10:32 4.1 4.1 100 0 0 1013.3 0.0000 0.0000
10:42 4.2 4.2 100 0 0 1013.4 0.0000 0.0000
10:52 4.3 4.3 100 0 0 1013.3 0.0000 0.0000
11:02 4.5 4.5 100 0 0 1013.2 0.0000 0.0000
11:08 4.5 4.5 100 0 0 1013.3 0.0000 0.0000
11:19 4.6 4.6 100 0 0 1013.2 0.0000 0.0000
11:29 4.7 4.7 100 0 0 1013.1 0.0000 0.0000
11:39 4.9 4.9 100 0 0 1013 0.0000 0.0000
11:49 5.1 5.1 100 0 0 1012.9 0.0000 0.0000
11:59 5.2 5.2 100 0 0 1012.8 0.0000 0.0000
12:09 5.5 5.5 100 0 0 1012.7 0.0000 0.0000
12:19 5.6 5.6 100 0 0 1012.6 0.0000 0.0000
12:30 5.7 5.7 100 0 0 1012.5 0.0000 0.0000
12:40 5.7 5.7 100 0 0 1012.4 0.0000 0.0000
12:49 5.9 5.9 100 0 0 1012.4 0.0000 0.0000
13:05 6 6 100 0 0 1012.1 0.0000 0.0000
13:15 6.1 6.1 100 0 0 1011.9 0.0000 0.0000
13:25 6.1 6.1 100 0 0 1011.8 0.0000 0.0000
13:35 6.2 6.2 100 0 0 1011.6 0.0000 0.0000
13:45 6.4 6.4 100 0 0 1011.5 0.0000 0.0000
14:00 6.8 6.7 99 0 0 1011.4 0.0000 0.0000
14:10 6.8 6.5 98 0 0 1011.3 0.0000 0.0000
14:21 7 6.9 99 0 0 1011.2 0.0000 0.0000
14:31 7.1 6.8 98 0 0 1011.2 0.0000 0.0000
14:40 7.2 6.9 98 0 0 1011.2 0.0000 0.0000
14:51 7.2 6.9 98 0 0 1011 0.0000 0.0000
15:02 7.3 7 98 0 0 1010.8 0.0000 0.0000
15:11 7.4 7.1 98 0 0 1010.8 0.0000 0.0000
15:19 7.4 7.1 98 0 0 1010.8 0.0000 0.0000
15:28 7.4 7.1 98 0 0 1010.6 0.0000 0.0000
15:38 7.6 7.3 98 0 0 1010.6 0.0000 0.0000
15:49 7.6 7.3 98 0 0 1010.4 0.0000 0.0000
15:59 7.6 7.3 98 0 0 1010.5 0.0000 0.0000
16:09 7.7 7.4 98 0 0 1010.5 0.0000 0.0000
16:19 7.7 7.4 98 0 0 1010.5 0.0000 0.0000
16:29 7.8 7.5 98 0 0 1010.4 0.0000 0.0000
16:39 7.9 7.6 98 0 0 1010.4 0.0000 0.0000
16:49 8 7.7 98 0 0 1010.4 0.0000 0.0000
16:59 8 7.7 98 0 0 1010.3 0.0000 0.0000
17:14 8 7.7 98 0 0 1010.2 0.0000 0.0000
17:24 8 7.6 97 0 0 1010.1 0.0000 0.0000
17:35 8 7.7 98 0 0 1010 0.0000 0.0000
17:44 8 7.7 98 0 0 1009.9 0.0000 0.0000
17:54 8 7.7 98 0 0 1009.8 0.0000 0.0000
18:04 8 7.7 98 0 0 1009.8 0.0000 0.0000
18:10 8 7.7 98 0 0 1009.8 0.0000 0.0000
18:20 8 7.7 98 0 0 1009.9 0.0000 0.0000
18:30 8 7.7 98 0 0 1009.9 0.0000 0.0000
18:40 7.9 7.6 98 0 0 1009.8 0.0000 0.0000
18:50 7.9 7.6 98 0 0 1009.8 0.0000 0.0000
19:00 7.9 7.8 99 0 0 1009.8 0.0000 0.0000
19:10 7.9 7.6 98 0 0 1009.7 0.0000 0.0000
19:20 7.9 7.6 98 0 0 1009.7 0.0000 0.0000
19:30 7.8 7.4 97 0 0 1009.6 0.0000 0.0000
19:40 7.7 7.1 96 0 0 1009.6 0.0000 0.0000
19:50 7.6 7 96 0 0 1009.6 0.0000 0.0000
20:00 7.5 6.9 96 0 0 1009.7 0.0000 0.0000
20:10 7.4 6.8 96 0 0 1009.6 0.0000 0.0000
20:20 7.4 7 97 0 0 1009.3 0.0000 0.0000
20:31 7.5 7.1 97 0 0 1009.3 0.0000 0.0000
20:41 7.5 7.1 97 0 0 1009.2 0.0000 0.0000
20:50 7.5 6.9 96 0 0 1009.2 0.0000 0.0000
21:01 7.4 6.8 96 0 0 1009 0.0000 0.0000
21:11 7.4 7 97 0 0 1009 0.0000 0.0000
21:21 7.4 6.8 96 0 0 1008.9 0.0000 0.0000
21:30 7.3 6.7 96 0 0 1008.8 0.0000 0.0000
21:41 7.3 6.7 96 0 0 1008.8 0.0000 0.0000
21:51 7.2 6.6 96 0 0 1008.6 0.0000 0.0000
22:01 7.2 6.6 96 0 0 1008.5 0.0000 0.0000
22:11 7.2 6.5 95 0 0 1008.4 0.0000 0.0000
22:22 7.2 6.5 95 0 0 1008.3 0.0000 0.0000
22:32 7.2 6.5 95 0 0 1008.1 0.0000 0.0000
22:42 7.1 6.5 96 0 0 1007.9 0.0000 0.0000
22:52 7.1 6.5 96 0 0 1007.9 0.0990 0.1000
23:02 7 6.6 97 0 0 1007.7 0.0990 0.1000
23:12 6.9 6.6 98 0 0 1007.6 0.1980 0.2000
23:22 6.9 6.8 99 0 0 1007.5 0.2970 0.3000
23:32 6.9 6.8 99 0 0 1007.3 0.2970 0.3000
23:42 6.9 6.9 100 0 0 1007.3 0.2970 0.3000
23:52 6.9 6.9 100 0 0 1007.1 0.3960 0.5000

DAY STATISTIC

2020-01-26
TEMPERATURE
AVERAGE
5.0
HIGH
8.0
16:49
LOW
1.4
03:06
PRESSURE
AVERAGE
1012.2
HIGH
1017.2
00:04
LOW
1007.1
23:52
DEWPOINT
AVERAGE
4.8
HIGH
7.8
19:00
LOW
1.4
03:06
HUMIDITY
AVERAGE
99
HIGH
100
00:04
LOW
95
22:11
WIND SPEED
AVERAGE
0.0
HIGH
0.0
14:59
WIND GUST
AVERAGE
0.0
HIGH
0.0
14:59
WIND DIRECTION
PREVAILING
%
PRECIPITATION
RAIN HOUR
0.4
RAIN DAY
0.5
TEMPERATURE (°C)
LOW
1.4
HIGH
8.0
AVERAGE
5.0
PRESSURE (hpa)
LOW
1007.1
HIGH
1017.2
AVERAGE
1012.2
DEVICE